Time;durP1;ratioP1;P1;durP2;ratioP2;P2;SDS_P1;SDS_P2;PMS_P1;PMS_P2;Temp;Humidity;BMP_temperature;BMP_pressure;BME280_temperature;BME280_humidity;BME280_pressure;Samples;Min_cycle;Max_cycle;Signal;HPM_P1;HPM_P2
2021/06/18 00:01:52;;;;;;;2.00;0.37;;;19.40;99.90;;;;;;5022638;28;20036;-88
2021/06/18 00:04:18;;;;;;;0.20;0.20;;;19.50;99.90;;;;;;5019024;28;20041;-88
2021/06/18 00:06:44;;;;;;;0.00;0.00;;;19.50;99.90;;;;;;5025372;28;20049;-88
2021/06/18 00:09:10;;;;;;;0.17;0.17;;;19.50;99.90;;;;;;5018482;28;20419;-87
2021/06/18 00:11:36;;;;;;;0.03;0.03;;;19.50;99.90;;;;;;5024994;28;20033;-87
2021/06/18 00:14:02;;;;;;;0.80;0.80;;;19.50;99.90;;;;;;5023925;28;20033;-87
2021/06/18 00:16:28;;;;;;;2.38;0.50;;;19.50;99.90;;;;;;5026844;28;20113;-87
2021/06/18 00:18:54;;;;;;;0.00;0.00;;;19.40;99.90;;;;;;5022374;28;20114;-87
2021/06/18 00:21:19;;;;;;;0.00;0.00;;;19.40;99.90;;;;;;5023672;28;20034;-87
2021/06/18 00:23:45;;;;;;;0.30;0.30;;;19.30;99.90;;;;;;5018890;28;20052;-86
2021/06/18 00:26:11;;;;;;;0.10;0.10;;;19.40;99.90;;;;;;5015272;28;20105;-86
2021/06/18 00:28:37;;;;;;;0.30;0.30;;;19.50;99.90;;;;;;5015823;28;20034;-87
2021/06/18 00:31:02;;;;;;;0.47;0.47;;;19.50;99.90;;;;;;5032541;28;20498;-87
2021/06/18 00:33:30;;;;;;;17.47;0.63;;;19.60;99.90;;;;;;5022966;28;20061;-88
2021/06/18 00:35:56;;;;;;;0.08;0.08;;;19.70;99.90;;;;;;5015935;28;20557;-87
2021/06/18 00:38:22;;;;;;;;;;;19.70;99.90;;;;;;5011744;28;20514;-87
2021/06/18 00:40:48;;;;;;;1.55;0.52;;;19.80;99.90;;;;;;5026219;28;19909;-88
2021/06/18 00:43:15;;;;;;;0.23;0.23;;;19.80;99.90;;;;;;5020604;28;20491;-88
2021/06/18 00:45:40;;;;;;;0.00;0.00;;;19.80;99.90;;;;;;5024727;28;20024;-88
2021/06/18 00:48:07;;;;;;;0.10;0.10;;;19.80;99.90;;;;;;5027538;28;20376;-88
2021/06/18 00:50:33;;;;;;;;;;;19.90;99.90;;;;;;5018996;28;20030;-88
2021/06/18 00:52:59;;;;;;;0.15;0.15;;;19.80;99.90;;;;;;5014970;28;19976;-89
2021/06/18 00:55:25;;;;;;;0.13;0.13;;;19.90;99.90;;;;;;5034810;28;20036;-88
2021/06/18 00:57:52;;;;;;;0.10;0.10;;;19.80;99.90;;;;;;5029640;28;20041;-88
2021/06/18 01:00:19;;;;;;;0.20;0.20;;;19.90;99.90;;;;;;5018078;28;20034;-88
2021/06/18 01:02:45;;;;;;;0.52;0.40;;;19.90;99.90;;;;;;5018165;28;20577;-88
2021/06/18 01:05:13;;;;;;;0.10;0.10;;;19.90;99.90;;;;;;5025904;28;20033;-88
2021/06/18 01:07:47;;;;;;;0.43;0.43;;;19.80;99.90;;;;;;5020502;28;20017;-87
2021/06/18 01:10:19;;;;;;;0.10;0.10;;;19.90;99.90;;;;;;5016209;28;20066;-88
2021/06/18 01:13:13;;;;;;;0.35;0.30;;;19.80;99.90;;;;;;5022040;28;20041;-88
2021/06/18 01:16:05;;;;;;;0.10;0.10;;;19.60;99.90;;;;;;5020495;28;20522;-88
2021/06/18 01:18:46;;;;;;;0.45;0.45;;;19.50;99.90;;;;;;5023165;28;20032;-88
2021/06/18 01:21:17;;;;;;;0.00;0.00;;;19.50;99.90;;;;;;5023820;28;20028;-87
2021/06/18 01:24:00;;;;;;;0.10;0.10;;;19.60;99.90;;;;;;5037301;28;20038;-88
2021/06/18 01:27:00;;;;;;;0.08;0.08;;;19.60;99.90;;;;;;5026521;28;20037;-87
2021/06/18 01:29:31;;;;;;;0.10;0.10;;;19.60;99.90;;;;;;5035190;28;20087;-88
2021/06/18 01:32:01;;;;;;;0.10;0.10;;;19.50;99.90;;;;;;5018532;28;20030;-88
2021/06/18 01:34:31;;;;;;;1.20;0.65;;;19.50;99.90;;;;;;5043262;28;20108;-88
2021/06/18 01:37:03;;;;;;;0.20;0.20;;;19.60;99.90;;;;;;5024291;28;20049;-87
2021/06/18 01:39:32;;;;;;;0.10;0.10;;;19.70;99.90;;;;;;5027263;28;20058;-87
2021/06/18 01:42:01;;;;;;;0.30;0.30;;;19.60;99.90;;;;;;5031895;28;20029;-87
2021/06/18 01:44:28;;;;;;;2.30;1.75;;;19.60;99.90;;;;;;5010229;28;20026;-88
2021/06/18 01:46:57;;;;;;;0.13;0.13;;;19.50;99.90;;;;;;5033826;28;20030;-87
2021/06/18 01:49:24;;;;;;;2.25;0.45;;;19.50;99.90;;;;;;5020112;28;20130;-88
2021/06/18 01:51:51;;;;;;;0.00;0.00;;;19.50;99.90;;;;;;5026064;28;20076;-88
2021/06/18 01:54:26;;;;;;;0.47;0.47;;;19.50;99.90;;;;;;5035722;28;20029;-88
2021/06/18 01:56:52;;;;;;;0.40;0.40;;;19.40;99.90;;;;;;5018237;28;20036;-88
2021/06/18 01:59:21;;;;;;;0.08;0.08;;;19.40;99.90;;;;;;5027468;28;20052;-88
2021/06/18 02:01:49;;;;;;;0.30;0.30;;;19.30;99.90;;;;;;5034532;28;20037;-88
2021/06/18 02:04:16;;;;;;;0.45;0.45;;;19.40;99.90;;;;;;5026499;28;20124;-88
2021/06/18 02:06:43;;;;;;;0.63;0.43;;;19.30;99.90;;;;;;5023237;28;20596;-87
2021/06/18 02:09:12;;;;;;;1.98;1.13;;;19.30;99.90;;;;;;5023175;28;20499;-88
2021/06/18 02:11:40;;;;;;;0.20;0.20;;;19.20;99.90;;;;;;5013721;28;20500;-86
2021/06/18 02:14:18;;;;;;;0.10;0.10;;;19.30;99.90;;;;;;5014256;28;20408;-86
2021/06/18 02:16:51;;;;;;;0.15;0.13;;;19.30;99.90;;;;;;5022013;28;20833;-86
2021/06/18 02:19:19;;;;;;;0.95;0.47;;;19.10;99.90;;;;;;5038887;28;20427;-87
2021/06/18 02:21:47;;;;;;;0.52;0.32;;;19.10;99.90;;;;;;5024124;28;20121;-87
2021/06/18 02:24:15;;;;;;;0.63;0.57;;;19.20;99.90;;;;;;5020818;28;20113;-87
2021/06/18 02:26:42;;;;;;;0.20;0.20;;;19.20;99.90;;;;;;5013383;28;20427;-87
2021/06/18 02:29:08;;;;;;;0.70;0.30;;;19.10;99.90;;;;;;5023006;28;20022;-87
2021/06/18 02:31:37;;;;;;;0.10;0.10;;;19.10;99.90;;;;;;5032684;28;20025;-87
2021/06/18 02:34:05;;;;;;;0.30;0.30;;;19.10;99.90;;;;;;5016095;28;20571;-86
2021/06/18 02:36:31;;;;;;;0.13;0.13;;;19.10;99.90;;;;;;5028653;28;20033;-87
2021/06/18 02:38:58;;;;;;;0.85;0.30;;;19.10;99.90;;;;;;5029339;28;20025;-87
2021/06/18 02:41:24;;;;;;;0.40;0.40;;;19.10;99.90;;;;;;5031725;28;20060;-87
2021/06/18 02:43:50;;;;;;;0.22;0.22;;;19.10;99.90;;;;;;5033604;28;20061;-87
2021/06/18 02:46:34;;;;;;;2.85;1.00;;;19.10;99.90;;;;;;5021454;28;20030;-87
2021/06/18 02:49:03;;;;;;;0.10;0.10;;;19.10;99.90;;;;;;5019533;28;20036;-86
2021/06/18 02:51:39;;;;;;;0.47;0.40;;;19.10;99.90;;;;;;5021745;28;20118;-87
2021/06/18 02:54:31;;;;;;;0.88;0.40;;;19.10;99.90;;;;;;5015983;28;20040;-87
2021/06/18 02:57:09;;;;;;;0.15;0.15;;;19.10;99.90;;;;;;5018311;28;20418;-87
2021/06/18 03:00:00;;;;;;;1.55;0.70;;;19.20;99.90;;;;;;5024333;28;20033;-87
2021/06/18 03:02:35;;;;;;;0.40;0.40;;;19.20;99.90;;;;;;5027158;28;20037;-87
2021/06/18 03:05:04;;;;;;;0.13;0.13;;;19.30;99.90;;;;;;5021838;28;20057;-88
2021/06/18 03:07:34;;;;;;;0.17;0.17;;;19.20;99.90;;;;;;5021715;28;20091;-87
2021/06/18 03:10:04;;;;;;;0.10;0.10;;;19.20;99.90;;;;;;5014352;28;20025;-87
2021/06/18 03:12:32;;;;;;;0.32;0.32;;;19.20;99.90;;;;;;5023753;28;20521;-87
2021/06/18 03:15:04;;;;;;;0.05;0.05;;;19.10;99.90;;;;;;5029490;28;20048;-86
2021/06/18 03:17:33;;;;;;;0.25;0.25;;;19.20;99.90;;;;;;5017597;28;20033;-87
2021/06/18 03:20:03;;;;;;;10.68;1.42;;;19.30;99.90;;;;;;5031519;28;20033;-87
2021/06/18 03:22:32;;;;;;;0.65;0.65;;;19.20;99.90;;;;;;5026917;28;20033;-87
2021/06/18 03:24:59;;;;;;;0.10;0.10;;;19.30;99.90;;;;;;5019943;28;20060;-87
2021/06/18 03:27:25;;;;;;;0.10;0.10;;;19.40;99.90;;;;;;5021790;28;20398;-86
2021/06/18 03:29:54;;;;;;;1.00;0.75;;;19.50;99.90;;;;;;5027454;28;20033;-87
2021/06/18 03:32:21;;;;;;;0.20;0.20;;;19.50;99.90;;;;;;5017444;28;20022;-87
2021/06/18 03:34:48;;;;;;;2.42;1.17;;;19.50;99.90;;;;;;5024658;28;20033;-87
2021/06/18 03:37:15;;;;;;;0.10;0.10;;;19.50;99.90;;;;;;5011277;28;20076;-86
2021/06/18 03:39:41;;;;;;;0.10;0.10;;;19.50;99.90;;;;;;5025181;28;20104;-87
2021/06/18 03:42:07;;;;;;;0.00;0.00;;;19.50;99.90;;;;;;5020371;28;20116;-87
2021/06/18 03:44:33;;;;;;;2.72;1.00;;;19.50;99.90;;;;;;5012846;28;20029;-86
2021/06/18 03:47:01;;;;;;;2.13;1.33;;;19.60;99.90;;;;;;5016075;28;20037;-87
2021/06/18 03:49:29;;;;;;;0.20;0.20;;;19.40;99.90;;;;;;5030841;28;20076;-87
2021/06/18 03:51:56;;;;;;;0.22;0.20;;;19.40;99.90;;;;;;5023821;28;20026;-87
2021/06/18 03:54:32;;;;;;;0.17;0.17;;;19.30;99.90;;;;;;5016045;28;20018;-87
2021/06/18 03:57:02;;;;;;;0.10;0.10;;;19.40;99.90;;;;;;5016415;28;20034;-86
2021/06/18 03:59:32;;;;;;;0.55;0.40;;;19.30;99.90;;;;;;5039799;28;20026;-86
2021/06/18 04:02:01;;;;;;;3.70;1.05;;;19.20;99.90;;;;;;5017317;28;20041;-86
2021/06/18 04:04:31;;;;;;;0.98;0.88;;;19.30;99.90;;;;;;5015542;28;20037;-86
2021/06/18 04:06:58;;;;;;;2.72;1.92;;;19.30;99.90;;;;;;5027564;28;20033;-86
2021/06/18 04:09:25;;;;;;;0.65;0.32;;;19.30;99.90;;;;;;5024300;28;20545;-87
2021/06/18 04:11:51;;;;;;;0.65;0.60;;;19.30;99.90;;;;;;5021686;28;20444;-87
2021/06/18 04:14:17;;;;;;;0.10;0.10;;;19.30;99.90;;;;;;5023819;28;20068;-87
2021/06/18 04:16:44;;;;;;;0.00;0.00;;;19.20;99.90;;;;;;5022203;28;20065;-87
2021/06/18 04:19:10;;;;;;;1.55;0.30;;;19.30;99.90;;;;;;5015459;28;20022;-87
2021/06/18 04:21:43;;;;;;;0.13;0.13;;;19.20;99.90;;;;;;5019059;28;20080;-87
2021/06/18 04:24:12;;;;;;;0.75;0.60;;;19.20;99.90;;;;;;5035465;28;20120;-88
2021/06/18 04:26:38;;;;;;;0.00;0.00;;;19.20;99.90;;;;;;5036905;28;20069;-86
2021/06/18 04:29:04;;;;;;;0.10;0.10;;;19.10;99.90;;;;;;5017580;28;20032;-87
2021/06/18 04:31:30;;;;;;;0.10;0.10;;;19.00;99.90;;;;;;5022675;28;20026;-86
2021/06/18 04:33:56;;;;;;;0.53;0.33;;;19.00;99.90;;;;;;5015013;28;20111;-86
2021/06/18 04:36:22;;;;;;;0.10;0.10;;;19.00;99.90;;;;;;5012545;28;20041;-85
2021/06/18 04:38:47;;;;;;;0.33;0.20;;;19.00;99.90;;;;;;5014467;28;20133;-86
2021/06/18 04:41:13;;;;;;;0.23;0.23;;;19.20;99.90;;;;;;5023908;28;20688;-85
2021/06/18 04:43:40;;;;;;;0.20;0.20;;;19.20;99.90;;;;;;5023564;28;20068;-88
2021/06/18 04:46:06;;;;;;;0.20;0.20;;;19.10;99.90;;;;;;5034606;28;20128;-95
2021/06/18 04:48:32;;;;;;;0.10;0.10;;;19.20;99.90;;;;;;5030743;28;20503;-94
2021/06/18 04:50:58;;;;;;;0.20;0.20;;;19.20;99.90;;;;;;5018425;28;20030;-94
2021/06/18 04:53:23;;;;;;;0.00;0.00;;;19.50;99.90;;;;;;5032794;28;20498;-93
2021/06/18 04:55:49;;;;;;;0.23;0.23;;;20.30;99.90;;;;;;5033077;28;20026;-93
2021/06/18 04:58:15;;;;;;;1.08;1.00;;;20.80;99.90;;;;;;5044659;28;20044;-95
2021/06/18 05:00:41;;;;;;;0.30;0.30;;;21.50;99.90;;;;;;5037693;28;20507;-92
2021/06/18 05:03:08;;;;;;;0.00;0.00;;;21.80;99.90;;;;;;5022471;28;20118;-91
2021/06/18 05:05:34;;;;;;;11.00;0.63;;;22.60;99.90;;;;;;5017730;28;20108;-91
2021/06/18 05:08:00;;;;;;;0.57;0.57;;;23.00;99.90;;;;;;5021830;28;20410;-90
2021/06/18 05:10:27;;;;;;;0.27;0.10;;;22.40;99.90;;;;;;5040755;28;20053;-91
2021/06/18 05:12:53;;;;;;;;;;;21.60;99.90;;;;;;5033741;28;20103;-90
2021/06/18 05:15:19;;;;;;;;;;;21.40;99.90;;;;;;5031610;28;20378;-92
2021/06/18 05:17:45;;;;;;;0.05;0.05;;;21.90;99.90;;;;;;5021716;28;20282;-91
2021/06/18 05:20:12;;;;;;;0.20;0.20;;;21.40;99.90;;;;;;5017341;28;20045;-90
2021/06/18 05:22:38;;;;;;;0.10;0.10;;;23.00;99.90;;;;;;5025368;28;20033;-91
2021/06/18 05:25:05;;;;;;;1.27;1.00;;;23.40;99.90;;;;;;5023007;28;20099;-90
2021/06/18 05:27:31;;;;;;;0.35;0.35;;;24.00;99.90;;;;;;5017806;28;20034;-90
2021/06/18 05:29:57;;;;;;;0.32;0.32;;;24.50;99.90;;;;;;5038087;28;20026;-90
2021/06/18 05:32:23;;;;;;;0.57;0.57;;;25.30;99.90;;;;;;5027431;28;20040;-91
2021/06/18 05:34:48;;;;;;;0.20;0.20;;;24.70;99.90;;;;;;5025373;28;20280;-93
2021/06/18 05:37:14;;;;;;;0.10;0.10;;;24.70;99.90;;;;;;5019066;28;20280;-91
2021/06/18 05:39:42;;;;;;;0.10;0.10;;;25.50;99.90;;;;;;5018196;28;20064;-89
2021/06/18 05:42:09;;;;;;;0.00;0.00;;;26.40;99.90;;;;;;5041269;28;20324;-92
2021/06/18 05:44:35;;;;;;;0.35;0.35;;;26.70;99.90;;;;;;5037278;28;20075;-90
2021/06/18 05:47:00;;;;;;;0.00;0.00;;;26.90;99.90;;;;;;5027601;28;20037;-90
2021/06/18 05:49:27;;;;;;;0.00;0.00;;;27.50;99.90;;;;;;5013274;28;20044;-89
2021/06/18 05:51:53;;;;;;;0.10;0.10;;;27.70;99.90;;;;;;5040774;28;20598;-87
2021/06/18 05:54:19;;;;;;;0.80;0.57;;;27.70;99.90;;;;;;5029059;28;20112;-87
2021/06/18 05:56:44;;;;;;;0.00;0.00;;;27.40;99.90;;;;;;5031134;28;20068;-87
2021/06/18 05:59:10;;;;;;;1.45;0.40;;;27.90;99.90;;;;;;5012873;28;21269;-87
2021/06/18 06:01:36;;;;;;;0.00;0.00;;;28.10;99.90;;;;;;5030336;28;20124;-87
2021/06/18 06:04:02;;;;;;;1.85;0.38;;;27.90;99.90;;;;;;5029001;28;20083;-86
2021/06/18 06:06:28;;;;;;;;;;;28.10;99.90;;;;;;5031798;28;20034;-86
2021/06/18 06:08:54;;;;;;;0.00;0.00;;;26.80;99.90;;;;;;5030735;28;20362;-85
2021/06/18 06:11:21;;;;;;;;;;;27.00;99.90;;;;;;5030442;28;20013;-87
2021/06/18 06:13:47;;;;;;;3.85;0.90;;;25.80;99.90;;;;;;5029510;28;20434;-86
2021/06/18 06:16:13;;;;;;;0.10;0.10;;;26.00;99.90;;;;;;5030641;28;20411;-87
2021/06/18 06:18:39;;;;;;;3.72;0.20;;;24.00;99.90;;;;;;5045724;28;20029;-87
2021/06/18 06:21:05;;;;;;;0.00;0.00;;;23.80;99.90;;;;;;5028802;28;20030;-88
2021/06/18 06:23:31;;;;;;;;;;;24.50;99.90;;;;;;5031320;28;20026;-87
2021/06/18 06:25:57;;;;;;;0.00;0.00;;;24.60;99.90;;;;;;5030989;28;19962;-87
2021/06/18 06:28:22;;;;;;;6.05;1.35;;;24.90;1.00;;;;;;5024699;28;20160;-87
2021/06/18 06:30:48;;;;;;;0.03;0.00;;;27.30;99.90;;;;;;5028656;28;20064;-86
2021/06/18 06:33:26;;;;;;;0.05;0.05;;;27.90;99.90;;;;;;5042253;28;20095;-86
2021/06/18 06:35:53;;;;;;;0.00;0.00;;;28.80;99.90;;;;;;5028602;28;20719;-86
2021/06/18 06:38:20;;;;;;;0.10;0.10;;;29.50;99.90;;;;;;5026760;28;20025;-86
2021/06/18 06:40:50;;;;;;;0.10;0.10;;;29.30;99.90;;;;;;5015555;28;20112;-86
2021/06/18 06:43:17;;;;;;;0.10;0.10;;;28.90;99.90;;;;;;5035691;28;20022;-86
2021/06/18 06:45:43;;;;;;;1.55;0.40;;;30.10;99.90;;;;;;5025861;28;20030;-86
2021/06/18 06:48:09;;;;;;;1.08;0.77;;;30.00;99.90;;;;;;5025265;28;20032;-86
2021/06/18 06:50:35;;;;;;;0.00;0.00;;;30.80;99.90;;;;;;5010361;28;20045;-86
2021/06/18 06:53:01;;;;;;;;;;;30.80;99.90;;;;;;5010923;28;20026;-86
2021/06/18 06:55:26;;;;;;;0.25;0.25;;;28.80;99.90;;;;;;5009959;28;20330;-86
2021/06/18 06:57:53;;;;;;;0.20;0.20;;;29.20;99.90;;;;;;5030677;28;20057;-87
2021/06/18 07:00:19;;;;;;;2.08;0.75;;;30.20;99.90;;;;;;5043972;28;20092;-86
2021/06/18 07:02:45;;;;;;;0.00;0.00;;;30.20;99.90;;;;;;5028031;28;20045;-86
2021/06/18 07:05:11;;;;;;;;;;;28.90;99.90;;;;;;5027862;28;20042;-89
2021/06/18 07:07:37;;;;;;;0.73;0.55;;;28.60;99.90;;;;;;5029043;28;19909;-89
2021/06/18 07:10:04;;;;;;;0.00;0.00;;;29.90;98.50;;;;;;5030672;28;20433;-88
2021/06/18 07:12:30;;;;;;;0.20;0.20;;;30.30;98.60;;;;;;5030100;28;20029;-89
2021/06/18 07:14:56;;;;;;;;;;;29.40;95.90;;;;;;5030779;28;20564;-89
2021/06/18 07:17:23;;;;;;;0.00;0.00;;;29.50;96.10;;;;;;5028924;28;19991;-89
2021/06/18 07:19:49;;;;;;;0.00;0.00;;;30.00;99.80;;;;;;5029157;28;20491;-89
2021/06/18 07:22:18;;;;;;;0.22;0.22;;;29.80;93.90;;;;;;5030600;28;20061;-89
2021/06/18 07:24:45;;;;;;;0.20;0.20;;;30.20;92.50;;;;;;5029919;28;20138;-89
2021/06/18 07:27:11;;;;;;;0.00;0.00;;;31.30;91.90;;;;;;5030062;28;20065;-89
2021/06/18 07:29:36;;;;;;;;;;;31.10;96.60;;;;;;5045912;28;20052;-89
2021/06/18 07:32:02;;;;;;;0.10;0.10;;;32.10;85.20;;;;;;5030585;28;19905;-89
2021/06/18 07:34:28;;;;;;;0.15;0.15;;;33.80;81.20;;;;;;5030405;28;20022;-89
2021/06/18 07:36:54;;;;;;;0.00;0.00;;;32.50;81.70;;;;;;5045953;28;20032;-89
2021/06/18 07:39:20;;;;;;;0.00;0.00;;;32.10;76.90;;;;;;5029457;28;20033;-89
2021/06/18 07:41:46;;;;;;;0.70;0.52;;;33.10;72.60;;;;;;5030425;28;20105;-89
2021/06/18 07:44:12;;;;;;;0.03;0.03;;;33.30;68.50;;;;;;5029609;28;20034;-89
2021/06/18 07:46:38;;;;;;;0.10;0.10;;;33.10;65.70;;;;;;5031215;28;20506;-90
2021/06/18 07:49:04;;;;;;;0.00;0.00;;;33.50;59.40;;;;;;5029701;28;20033;-89
2021/06/18 07:51:30;;;;;;;1.13;0.22;;;34.40;59.30;;;;;;5029927;28;20445;-89
2021/06/18 07:53:56;;;;;;;0.75;0.57;;;34.90;51.80;;;;;;5029500;28;20498;-89
2021/06/18 07:56:26;;;;;;;0.00;0.00;;;35.70;47.90;;;;;;5029631;28;20104;-89
2021/06/18 07:58:52;;;;;;;0.63;0.20;;;37.10;45.20;;;;;;5028955;28;20403;-89
2021/06/18 08:01:19;;;;;;;0.00;0.00;;;35.70;39.70;;;;;;5045814;28;20025;-89
2021/06/18 08:03:45;;;;;;;0.00;0.00;;;31.00;49.90;;;;;;5029777;28;20045;-89
2021/06/18 08:06:11;;;;;;;0.13;0.00;;;33.00;54.80;;;;;;5045715;28;20104;-89
2021/06/18 08:08:37;;;;;;;1.08;0.15;;;30.20;47.70;;;;;;5045431;28;20049;-89
2021/06/18 08:11:03;;;;;;;0.00;0.00;;;33.40;47.00;;;;;;5045534;28;20053;-89
2021/06/18 08:13:29;;;;;;;0.38;0.38;;;34.60;45.30;;;;;;5030071;28;20029;-89
2021/06/18 08:15:55;;;;;;;0.15;0.03;;;35.40;38.40;;;;;;5029904;28;20372;-89
2021/06/18 08:18:21;;;;;;;0.25;0.10;;;35.40;42.10;;;;;;5030090;28;20095;-89
2021/06/18 08:20:47;;;;;;;0.00;0.00;;;35.30;38.70;;;;;;5028484;28;20040;-89
2021/06/18 08:23:13;;;;;;;0.00;0.00;;;34.30;37.00;;;;;;5029662;28;20104;-89
2021/06/18 08:25:40;;;;;;;0.10;0.10;;;34.30;33.80;;;;;;5029705;28;20531;-89
2021/06/18 08:28:06;;;;;;;0.00;0.00;;;34.00;33.40;;;;;;5028683;28;20049;-89
2021/06/18 08:30:32;;;;;;;0.00;0.00;;;35.20;31.20;;;;;;5029911;28;20096;-89
2021/06/18 08:32:58;;;;;;;0.00;0.00;;;34.40;36.40;;;;;;5028331;28;20441;-89
2021/06/18 08:35:24;;;;;;;0.00;0.00;;;35.80;32.30;;;;;;5029957;28;20100;-89
2021/06/18 08:37:50;;;;;;;0.10;0.10;;;36.60;29.90;;;;;;5028426;28;20442;-89
2021/06/18 08:40:16;;;;;;;0.00;0.00;;;36.60;28.00;;;;;;5029727;28;20021;-89
2021/06/18 08:42:42;;;;;;;0.00;0.00;;;34.80;28.20;;;;;;5028483;28;20041;-89
2021/06/18 08:45:09;;;;;;;0.00;0.00;;;34.80;27.00;;;;;;5027922;28;20026;-89
2021/06/18 08:47:36;;;;;;;0.00;0.00;;;33.60;27.60;;;;;;5029816;28;20053;-89
2021/06/18 08:50:03;;;;;;;0.00;0.00;;;36.30;27.50;;;;;;5028061;28;20029;-88
2021/06/18 08:52:28;;;;;;;0.85;0.00;;;38.40;24.20;;;;;;5028351;28;20022;-88
2021/06/18 08:54:55;;;;;;;0.25;0.20;;;38.30;23.10;;;;;;5028411;28;20509;-89
2021/06/18 08:57:22;;;;;;;0.00;0.00;;;36.50;17.30;;;;;;5026210;28;20495;-88
2021/06/18 08:59:49;;;;;;;0.00;0.00;;;36.70;19.20;;;;;;5009845;28;20145;-88
2021/06/18 09:02:16;;;;;;;0.20;0.20;;;37.40;21.30;;;;;;5025216;28;20041;-89
2021/06/18 09:05:05;;;;;;;0.00;0.00;;;34.40;24.50;;;;;;5009775;28;20088;-89
2021/06/18 09:07:50;;;;;;;0.00;0.00;;;35.70;25.90;;;;;;5009966;28;20030;-89
2021/06/18 09:10:37;;;;;;;0.00;0.00;;;36.60;16.90;;;;;;4991953;28;20042;-88
2021/06/18 09:13:16;;;;;;;0.00;0.00;;;35.70;23.70;;;;;;5009584;28;20032;-89
2021/06/18 09:15:51;;;;;;;0.00;0.00;;;36.50;17.80;;;;;;5008683;28;20645;-89
2021/06/18 09:18:30;;;;;;;0.30;0.30;;;36.60;16.50;;;;;;5008224;28;20420;-89
2021/06/18 09:21:18;;;;;;;0.10;0.08;;;35.80;16.90;;;;;;5008151;28;20034;-89
2021/06/18 09:23:53;;;;;;;0.00;0.00;;;36.30;19.80;;;;;;4992290;28;20034;-89
2021/06/18 09:26:33;;;;;;;0.10;0.10;;;37.70;14.60;;;;;;5011552;28;20453;-89
2021/06/18 09:29:14;;;;;;;0.00;0.00;;;38.50;9.70;;;;;;5011488;28;20312;-89
2021/06/18 09:31:50;;;;;;;0.00;0.00;;;37.30;16.50;;;;;;5011586;28;20025;-89
2021/06/18 09:34:40;;;;;;;0.00;0.00;;;37.90;13.90;;;;;;5011129;28;20116;-89
2021/06/18 09:37:21;;;;;;;0.00;0.00;;;37.70;14.70;;;;;;5012546;28;20033;-89
2021/06/18 09:39:58;;;;;;;0.10;0.10;;;40.00;8.10;;;;;;5011403;28;20041;-88
2021/06/18 09:42:25;;;;;;;0.15;0.00;;;39.40;6.50;;;;;;5011373;28;20607;-88
2021/06/18 09:45:12;;;;;;;0.25;0.20;;;39.80;7.40;;;;;;5010822;28;20086;-88
2021/06/18 09:47:40;;;;;;;0.30;0.10;;;37.60;9.10;;;;;;5011882;28;20055;-88
2021/06/18 09:50:22;;;;;;;2.65;0.10;;;38.20;8.10;;;;;;4994905;28;20076;-90
2021/06/18 09:52:48;;;;;;;0.00;0.00;;;36.40;16.50;;;;;;5011126;28;20014;-88
2021/06/18 09:55:22;;;;;;;;;;;36.00;11.30;;;;;;5011680;28;20040;-88
2021/06/18 09:57:54;;;;;;;0.00;0.00;;;34.50;17.50;;;;;;5012460;28;19909;-88
2021/06/18 10:00:22;;;;;;;2.10;0.63;;;36.30;8.30;;;;;;5011241;28;20060;-88
2021/06/18 10:02:53;;;;;;;0.00;0.00;;;39.40;8.90;;;;;;5012486;28;20033;-88
2021/06/18 10:05:24;;;;;;;0.10;0.10;;;39.10;5.30;;;;;;5023038;28;20049;-88
2021/06/18 10:07:53;;;;;;;0.28;0.20;;;40.20;1.10;;;;;;5011949;28;20053;-88
2021/06/18 10:10:26;;;;;;;0.08;0.00;;;39.20;1.00;;;;;;5012130;28;20483;-89
2021/06/18 10:12:54;;;;;;;0.20;0.20;;;38.80;4.00;;;;;;5027390;28;20487;-88
2021/06/18 10:15:23;;;;;;;0.00;0.00;;;37.80;9.30;;;;;;5026746;28;20484;-88
2021/06/18 10:17:51;;;;;;;0.00;0.00;;;36.70;8.40;;;;;;5026774;28;20064;-89
2021/06/18 10:20:19;;;;;;;0.00;0.00;;;38.00;7.40;;;;;;5026921;28;20087;-88
2021/06/18 10:23:06;;;;;;;0.13;0.13;;;38.30;7.90;;;;;;5025945;28;20037;-88
2021/06/18 10:25:36;;;;;;;0.10;0.10;;;37.40;8.90;;;;;;5026613;28;20030;-89
2021/06/18 10:28:07;;;;;;;0.52;0.15;;;38.30;6.30;;;;;;5026382;28;20459;-88
2021/06/18 10:30:48;;;;;;;0.00;0.00;;;36.80;7.10;;;;;;5026759;28;20053;-89
2021/06/18 10:33:28;;;;;;;0.00;0.00;;;37.20;4.50;;;;;;5011554;28;20041;-89
2021/06/18 10:36:17;;;;;;;0.15;0.15;;;40.30;1.00;;;;;;5010095;28;20029;-88
2021/06/18 10:38:45;;;;;;;0.00;0.00;;;41.90;1.00;;;;;;5025932;28;20022;-88
2021/06/18 10:41:17;;;;;;;0.10;0.10;;;38.00;1.00;;;;;;5026456;28;20553;-89
2021/06/18 10:43:57;;;;;;;0.10;0.08;;;38.60;3.00;;;;;;5025945;28;20475;-88
2021/06/18 10:46:30;;;;;;;0.00;0.00;;;38.90;1.00;;;;;;5025966;28;20029;-88
2021/06/18 10:48:57;;;;;;;0.10;0.10;;;40.30;1.00;;;;;;5010740;28;20488;-88
2021/06/18 10:51:29;;;;;;;0.20;0.20;;;37.10;1.00;;;;;;5011110;28;20109;-88
2021/06/18 10:54:33;;;;;;;0.32;0.20;;;36.30;6.00;;;;;;5009347;28;20108;-88
2021/06/18 10:57:04;;;;;;;0.10;0.10;;;34.50;8.70;;;;;;5011113;28;20068;-88
2021/06/18 10:59:39;;;;;;;0.00;0.00;;;36.30;4.90;;;;;;5030718;28;20075;-88
2021/06/18 11:02:23;;;;;;;0.00;0.00;;;35.80;4.60;;;;;;5046333;28;20064;-88
2021/06/18 11:04:57;;;;;;;0.00;0.00;;;34.20;8.10;;;;;;5044904;28;20041;-88
2021/06/18 11:07:33;;;;;;;0.20;0.10;;;37.10;1.00;;;;;;5029336;28;20025;-88
2021/06/18 11:10:05;;;;;;;0.00;0.00;;;39.10;1.00;;;;;;5045329;28;20025;-88
2021/06/18 11:12:31;;;;;;;0.03;0.03;;;36.70;1.00;;;;;;5019938;28;20020;-87
2021/06/18 11:14:59;;;;;;;0.00;0.00;;;36.20;1.30;;;;;;5033960;28;20042;-88
2021/06/18 11:17:40;;;;;;;0.05;0.00;;;37.60;1.00;;;;;;5026631;28;20025;-88
2021/06/18 11:20:15;;;;;;;0.00;0.00;;;36.70;1.50;;;;;;5026292;28;20035;-88
2021/06/18 11:22:55;;;;;;;0.43;0.35;;;36.30;6.70;;;;;;5020552;28;20025;-88
2021/06/18 11:25:36;;;;;;;0.00;0.00;;;35.70;7.70;;;;;;5018884;28;20128;-87
2021/06/18 11:28:34;;;;;;;0.10;0.10;;;36.70;4.20;;;;;;5020702;28;20026;-87
2021/06/18 11:31:21;;;;;;;0.00;0.00;;;38.50;2.80;;;;;;5024918;28;20049;-88
2021/06/18 11:33:53;;;;;;;0.10;0.10;;;32.70;7.10;;;;;;5027407;28;20025;-88
2021/06/18 11:36:22;;;;;;;0.10;0.10;;;30.10;15.00;;;;;;5028161;28;20029;-87
2021/06/18 11:38:58;;;;;;;0.00;0.00;;;29.30;17.10;;;;;;5020060;28;20052;-88
2021/06/18 11:41:37;;;;;;;0.22;0.10;;;28.50;21.00;;;;;;5018902;28;20075;-88
2021/06/18 11:44:04;;;;;;;0.00;0.00;;;28.40;20.30;;;;;;5013681;28;20384;-88
2021/06/18 11:46:33;;;;;;;0.00;0.00;;;28.30;23.10;;;;;;5018033;28;20652;-88
2021/06/18 11:49:13;;;;;;;0.03;0.03;;;27.80;24.70;;;;;;5024584;28;20490;-87
2021/06/18 11:51:40;;;;;;;0.10;0.10;;;28.20;23.30;;;;;;5035775;28;20498;-88
2021/06/18 11:54:07;;;;;;;0.00;0.00;;;28.50;22.00;;;;;;5021245;28;20036;-88
2021/06/18 11:56:34;;;;;;;0.00;0.00;;;28.70;22.60;;;;;;5027209;28;20110;-87
2021/06/18 11:59:00;;;;;;;0.00;0.00;;;28.10;25.30;;;;;;5021053;28;20116;-87
2021/06/18 12:01:31;;;;;;;0.20;0.20;;;28.00;24.80;;;;;;5021272;28;20056;-88
2021/06/18 12:04:00;;;;;;;0.30;0.30;;;28.30;24.70;;;;;;5033503;28;20132;-88
2021/06/18 12:06:36;;;;;;;0.30;0.15;;;28.10;26.30;;;;;;5018485;28;20086;-88
2021/06/18 12:09:12;;;;;;;0.00;0.00;;;27.80;27.30;;;;;;5014380;28;20034;-87
2021/06/18 12:11:38;;;;;;;;;;;28.30;26.90;;;;;;5022757;28;20033;-88
2021/06/18 12:14:07;;;;;;;0.17;0.17;;;28.20;24.60;;;;;;5023296;28;19909;-88
2021/06/18 12:16:35;;;;;;;0.10;0.10;;;28.40;26.10;;;;;;5022591;28;20072;-88
2021/06/18 12:19:24;;;;;;;0.38;0.38;;;28.40;25.90;;;;;;5020842;28;20132;-88
2021/06/18 12:22:16;;;;;;;0.00;0.00;;;27.90;27.50;;;;;;5021290;28;20031;-88
2021/06/18 12:24:45;;;;;;;0.00;0.00;;;28.00;28.00;;;;;;5019711;28;20144;-88
2021/06/18 12:27:23;;;;;;;0.10;0.03;;;27.70;27.60;;;;;;5022087;28;20057;-88
2021/06/18 12:29:55;;;;;;;0.00;0.00;;;27.90;28.40;;;;;;5020457;28;20491;-88
2021/06/18 12:32:31;;;;;;;0.17;0.17;;;28.40;26.80;;;;;;5017835;28;20025;-88
2021/06/18 12:35:05;;;;;;;0.10;0.10;;;27.90;26.30;;;;;;5017765;28;20494;-88
2021/06/18 12:37:34;;;;;;;0.05;0.05;;;28.10;28.90;;;;;;5014344;28;20038;-88
2021/06/18 12:40:21;;;;;;;0.00;0.00;;;28.00;29.00;;;;;;5022920;28;20510;-88
2021/06/18 12:42:52;;;;;;;0.10;0.05;;;28.10;27.60;;;;;;5016554;28;20064;-88
2021/06/18 12:45:31;;;;;;;0.55;0.32;;;28.10;27.50;;;;;;5019320;28;20565;-87
2021/06/18 12:48:21;;;;;;;0.10;0.10;;;27.70;28.70;;;;;;5026923;28;20060;-88
2021/06/18 12:50:53;;;;;;;0.65;0.20;;;27.90;28.10;;;;;;5019908;28;20120;-88
2021/06/18 12:53:29;;;;;;;0.20;0.17;;;27.60;29.30;;;;;;5011430;28;20609;-88
2021/06/18 12:55:55;;;;;;;0.08;0.08;;;27.70;28.90;;;;;;5011580;28;20057;-88
2021/06/18 12:58:26;;;;;;;0.10;0.10;;;27.50;29.70;;;;;;5020553;28;20518;-88
2021/06/18 13:01:06;;;;;;;0.00;0.00;;;27.30;31.10;;;;;;5023358;28;20045;-88
2021/06/18 13:03:46;;;;;;;0.00;0.00;;;27.20;28.90;;;;;;5021904;28;20026;-88
2021/06/18 13:06:13;;;;;;;0.10;0.10;;;27.40;28.50;;;;;;5028876;28;20490;-87